Blue Ridge Observed Data For Previous 48 Hours

Caption
Day and Hour Reservoir Elevation (behind dam)* Tailwater Elevation (below dam)* Average Hourly Discharge*
7/20/2018 2 AM EDT 1,686.35 1,540.68 154
7/20/2018 3 AM EDT 1,686.32 1,540.68 154
7/20/2018 4 AM EDT 1,686.36 1,540.68 155
7/20/2018 5 AM EDT 1,686.35 1,540.68 154
7/20/2018 6 AM EDT 1,686.38 1,540.68 155
7/20/2018 7 AM EDT 1,686.38 1,540.68 154
7/20/2018 8 AM EDT 1,686.39 1,540.68 154
7/20/2018 9 AM EDT 1,686.37 1,540.68 155
7/20/2018 10 AM EDT 1,686.36 1,543.06 1,415
7/20/2018 11 AM EDT 1,686.24 1,543.18 1,540
7/20/2018 12 PM EDT 1,686.22 1,543.18 1,536
7/20/2018 1 PM EDT 1,686.23 1,540.80 253
7/20/2018 2 PM EDT 1,686.25 1,540.68 157
7/20/2018 3 PM EDT 1,686.25 1,540.68 157
7/20/2018 4 PM EDT 1,686.25 1,540.62 167
7/20/2018 5 PM EDT 1,686.22 1,543.12 1,529
7/20/2018 6 PM EDT 1,686.19 1,543.19 1,553
7/20/2018 7 PM EDT 1,686.17 1,543.20 1,554
7/20/2018 8 PM EDT 1,686.12 1,543.20 1,548
7/20/2018 9 PM EDT 1,686.11 1,543.21 1,555
7/20/2018 10 PM EDT 1,686.06 1,543.21 1,550
7/20/2018 11 PM EDT 1,686.11 1,543.20 1,549
7/21/2018 12 AM EDT 1,686.03 1,543.20 1,550
7/21/2018 1 AM EDT 1,686.04 1,540.80 242
7/21/2018 2 AM EDT 1,686.05 1,540.68 157
7/21/2018 3 AM EDT 1,686.07 1,540.68 157
7/21/2018 4 AM EDT 1,686.11 1,540.70 157
7/21/2018 5 AM EDT 1,686.17 1,540.71 157
7/21/2018 6 AM EDT 1,686.24 1,540.72 157
7/21/2018 7 AM EDT 1,686.22 1,540.71 157
7/21/2018 8 AM EDT 1,686.22 1,540.70 157
7/21/2018 9 AM EDT 1,686.29 1,540.69 157
7/21/2018 10 AM EDT 1,686.33 1,543.12 1,459
7/21/2018 11 AM EDT 1,686.31 1,543.23 1,551
7/21/2018 12 PM EDT 1,686.25 1,543.23 1,549
7/21/2018 1 PM EDT 1,686.28 1,540.81 243
7/21/2018 2 PM EDT 1,686.29 1,540.69 154
7/21/2018 3 PM EDT 1,686.32 1,540.68 154
7/21/2018 4 PM EDT 1,686.34 1,540.68 154
7/21/2018 5 PM EDT 1,686.34 1,540.68 154
7/21/2018 6 PM EDT 1,686.36 1,540.68 154
7/21/2018 7 PM EDT 1,686.40 1,540.68 154
7/21/2018 8 PM EDT 1,686.42 1,540.68 154
7/21/2018 9 PM EDT 1,686.45 1,540.68 154
7/21/2018 10 PM EDT 1,686.49 1,540.68 154
7/21/2018 11 PM EDT 1,686.50 1,540.68 154
7/22/2018 12 AM EDT 1,686.52 1,540.68 154
7/22/2018 1 AM EDT 1,686.52 1,540.68 154
7/22/2018 2 AM EDT 1,686.55 1,540.68 154
7/22/2018 3 AM EDT 1,686.56 1,540.68 154
7/22/2018 4 AM EDT 1,686.57 1,540.68 155
7/22/2018 5 AM EDT 1,686.55 1,540.68 154
7/22/2018 6 AM EDT 1,686.58 1,540.68 155
7/22/2018 7 AM EDT 1,686.59 1,540.68 154
7/22/2018 8 AM EDT 1,686.57 1,540.68 155
7/22/2018 9 AM EDT 1,686.61 1,540.65 154
7/22/2018 10 AM EDT 1,686.53 1,543.15 1,514
7/22/2018 11 AM EDT 1,686.50 1,543.25 1,575
7/22/2018 12 PM EDT 1,686.46 1,543.25 1,576
7/22/2018 1 PM EDT 1,686.48 1,540.82 254
7/22/2018 2 PM EDT 1,686.52 1,540.69 155
7/22/2018 3 PM EDT 1,686.48 1,540.68 155
7/22/2018 4 PM EDT 1,686.52 1,540.68 156

Elevations are in feet above sea level. Discharges are in cubic feet per second and are reported at the end of the hour.